Time;durP1;ratioP1;P1;durP2;ratioP2;P2;SDS_P1;SDS_P2;PMS_P1;PMS_P2;Temp;Humidity;BMP_temperature;BMP_pressure;BME280_temperature;BME280_humidity;BME280_pressure;Samples;Min_cycle;Max_cycle;Signal;HPM_P1;HPM_P2
2021/07/14 00:00:41;;;;;;;6.28;4.47;;;15.30;99.90;;;;;;5034701;28;20029;-79
2021/07/14 00:03:08;;;;;;;8.15;4.95;;;15.40;99.90;;;;;;5033419;28;20029;-79
2021/07/14 00:05:34;;;;;;;7.55;4.80;;;15.40;99.90;;;;;;5035092;28;20037;-78
2021/07/14 00:08:00;;;;;;;6.95;5.53;;;15.50;99.90;;;;;;5046655;28;20037;-78
2021/07/14 00:10:30;;;;;;;7.72;6.80;;;15.50;99.90;;;;;;5042938;28;20052;-78
2021/07/14 00:23:19;;;;;;;8.10;6.50;;;15.40;99.90;;;;;;5042621;28;20029;-77
2021/07/14 00:25:45;;;;;;;9.13;7.28;;;15.40;99.90;;;;;;5044913;28;20037;-77
2021/07/14 00:28:13;;;;;;;11.88;7.63;;;15.40;99.90;;;;;;5053723;28;20034;-78
2021/07/14 00:30:39;;;;;;;10.88;6.75;;;15.40;99.90;;;;;;5034789;28;20060;-77
2021/07/14 00:33:05;;;;;;;9.75;6.47;;;15.40;99.90;;;;;;5033716;28;20053;-78
2021/07/14 00:35:32;;;;;;;13.63;7.53;;;15.40;99.90;;;;;;5034365;28;20484;-79
2021/07/14 00:37:59;;;;;;;7.47;6.20;;;15.50;99.90;;;;;;5034321;28;20054;-78
2021/07/14 00:40:26;;;;;;;7.35;5.38;;;15.40;99.90;;;;;;5034672;28;20034;-78
2021/07/14 00:42:52;;;;;;;6.90;5.15;;;15.50;99.90;;;;;;5050118;28;20045;-78
2021/07/14 00:45:18;;;;;;;5.07;4.57;;;15.50;99.90;;;;;;5049229;28;20391;-79
2021/07/14 00:47:49;;;;;;;6.53;4.43;;;15.60;99.90;;;;;;5034614;28;20041;-78
2021/07/14 00:50:16;;;;;;;5.43;3.92;;;15.60;99.90;;;;;;5050797;28;20037;-77
2021/07/14 00:52:42;;;;;;;4.78;3.60;;;15.50;99.90;;;;;;5043126;28;20030;-78
2021/07/14 00:55:09;;;;;;;4.93;3.92;;;15.60;99.90;;;;;;5034407;28;20789;-78
2021/07/14 00:57:36;;;;;;;7.22;4.03;;;15.60;99.90;;;;;;5034253;28;20044;-78
2021/07/14 01:00:04;;;;;;;7.70;4.63;;;15.60;99.90;;;;;;5035841;28;20034;-78
2021/07/14 01:02:31;;;;;;;5.10;3.65;;;15.60;99.90;;;;;;5043724;28;20475;-78
2021/07/14 01:05:08;;;;;;;4.55;3.67;;;15.70;99.90;;;;;;5049880;28;20025;-77
2021/07/14 01:08:17;;;;;;;6.53;3.45;;;15.70;99.90;;;;;;5044669;28;20040;-78
2021/07/14 01:10:49;;;;;;;6.32;3.75;;;15.70;99.90;;;;;;5035434;28;20026;-78
2021/07/14 01:13:36;;;;;;;5.75;3.58;;;15.80;99.90;;;;;;5041529;28;20032;-77
2021/07/14 01:16:11;;;;;;;5.18;3.42;;;15.70;99.90;;;;;;5032231;28;20048;-78
2021/07/14 01:18:57;;;;;;;7.22;4.38;;;15.70;99.90;;;;;;5033380;28;20029;-78
2021/07/14 01:21:44;;;;;;;6.40;4.05;;;15.70;99.90;;;;;;5033528;28;20379;-78
2021/07/14 01:24:35;;;;;;;5.78;4.07;;;15.70;99.90;;;;;;5047864;28;20045;-78
2021/07/14 01:27:16;;;;;;;5.82;4.30;;;15.80;99.90;;;;;;5033691;28;20033;-79
2021/07/14 01:29:49;;;;;;;6.03;4.20;;;15.80;99.90;;;;;;5035941;28;20032;-79
2021/07/14 01:32:18;;;;;;;5.20;3.75;;;15.80;99.90;;;;;;5036923;28;20045;-76
2021/07/14 01:34:52;;;;;;;4.40;3.00;;;15.80;99.90;;;;;;5034615;28;20037;-78
2021/07/14 01:37:21;;;;;;;4.53;2.78;;;15.80;99.90;;;;;;5033889;28;20044;-77
2021/07/14 01:39:50;;;;;;;2.95;2.30;;;16.00;99.90;;;;;;5033782;28;20045;-78
2021/07/14 01:42:19;;;;;;;3.47;2.30;;;16.10;99.90;;;;;;5033406;28;20026;-77
2021/07/14 01:44:45;;;;;;;4.82;2.50;;;16.10;99.90;;;;;;5033756;28;20025;-78
2021/07/14 01:47:14;;;;;;;3.08;2.47;;;16.10;99.90;;;;;;5033867;28;20044;-78
2021/07/14 01:49:42;;;;;;;3.25;2.83;;;16.20;99.90;;;;;;5041205;28;20466;-78
2021/07/14 01:52:13;;;;;;;6.10;2.63;;;16.10;99.90;;;;;;5047131;28;20025;-77
2021/07/14 01:54:42;;;;;;;4.15;2.60;;;16.00;99.90;;;;;;5045215;28;20032;-77
2021/07/14 01:57:09;;;;;;;4.10;2.78;;;15.90;99.90;;;;;;5042665;28;20037;-77
2021/07/14 01:59:36;;;;;;;4.55;3.47;;;15.80;99.90;;;;;;5033311;28;20040;-79
2021/07/14 02:02:05;;;;;;;4.18;3.22;;;15.80;99.90;;;;;;5033074;28;20371;-77
2021/07/14 02:04:33;;;;;;;4.55;3.40;;;15.70;99.90;;;;;;5052591;28;20036;-77
2021/07/14 02:07:11;;;;;;;5.10;3.70;;;15.70;99.90;;;;;;5048141;28;20074;-77
2021/07/14 02:09:41;;;;;;;4.03;3.33;;;15.70;99.90;;;;;;5049735;28;20434;-77
2021/07/14 02:12:19;;;;;;;7.47;4.13;;;15.60;99.90;;;;;;5045298;28;20033;-77
2021/07/14 02:15:00;;;;;;;10.18;3.80;;;15.60;99.90;;;;;;5041938;28;20040;-77
2021/07/14 02:17:27;;;;;;;;;;;15.50;99.90;;;;;;5032794;28;20395;-76
2021/07/14 02:20:15;;;;;;;8.30;4.13;;;15.50;99.90;;;;;;5032687;28;19909;-76
2021/07/14 02:22:41;;;;;;;4.57;3.70;;;15.40;99.90;;;;;;5029137;28;20032;-77
2021/07/14 02:25:09;;;;;;;5.72;4.03;;;15.40;99.90;;;;;;5031946;28;20041;-77
2021/07/14 02:27:36;;;;;;;6.20;3.42;;;15.40;99.90;;;;;;5032453;28;20041;-78
2021/07/14 02:30:16;;;;;;;6.15;3.75;;;15.30;99.90;;;;;;5033023;28;20037;-77
2021/07/14 02:32:53;;;;;;;7.68;4.35;;;15.30;99.90;;;;;;5031561;28;20483;-78
2021/07/14 02:35:21;;;;;;;7.95;5.55;;;15.30;99.90;;;;;;5032327;28;20065;-77
2021/07/14 02:38:01;;;;;;;10.00;5.57;;;15.30;99.90;;;;;;5031994;28;20041;-77
2021/07/14 02:40:34;;;;;;;13.63;6.57;;;15.20;99.90;;;;;;5032512;28;20395;-77
2021/07/14 02:43:04;;;;;;;10.88;6.47;;;15.20;99.90;;;;;;5030427;28;20045;-77
2021/07/14 02:45:32;;;;;;;7.55;5.30;;;15.10;99.90;;;;;;5031995;28;20471;-77
2021/07/14 02:48:00;;;;;;;6.82;4.97;;;15.10;99.90;;;;;;5048005;28;20048;-77
2021/07/14 02:50:34;;;;;;;9.63;5.93;;;15.10;99.90;;;;;;5031709;28;20044;-77
2021/07/14 02:53:16;;;;;;;9.95;6.90;;;15.00;99.90;;;;;;5032601;28;20364;-77
2021/07/14 02:55:50;;;;;;;13.82;6.72;;;15.00;99.90;;;;;;5042467;28;20390;-77
2021/07/14 02:58:21;;;;;;;9.85;6.53;;;15.00;99.90;;;;;;5042687;28;20033;-76
2021/07/14 03:00:47;;;;;;;9.35;7.95;;;15.00;99.90;;;;;;5037886;28;20067;-77
2021/07/14 03:03:14;;;;;;;10.55;7.80;;;15.00;99.90;;;;;;5046263;28;20026;-77
2021/07/14 03:05:42;;;;;;;9.85;7.68;;;15.10;99.90;;;;;;5014044;28;20056;-77
2021/07/14 03:08:14;;;;;;;9.00;7.82;;;15.10;99.90;;;;;;5014042;28;20070;-76
2021/07/14 03:10:44;;;;;;;9.60;8.02;;;15.10;99.90;;;;;;5032114;28;20486;-77
2021/07/14 03:13:10;;;;;;;12.15;7.30;;;15.10;99.90;;;;;;5044838;28;20029;-77
2021/07/14 03:15:39;;;;;;;8.88;7.15;;;15.10;99.90;;;;;;5046319;28;20037;-77
2021/07/14 03:18:08;;;;;;;8.55;7.28;;;15.10;99.90;;;;;;5044406;28;20066;-77
2021/07/14 03:20:35;;;;;;;8.52;7.35;;;15.10;99.90;;;;;;5052892;28;20108;-76
2021/07/14 03:23:02;;;;;;;7.65;6.03;;;15.10;99.90;;;;;;5052094;28;20382;-77
2021/07/14 03:25:29;;;;;;;11.88;6.63;;;15.10;99.90;;;;;;5032053;28;20025;-77
2021/07/14 03:27:56;;;;;;;11.68;7.53;;;15.00;99.90;;;;;;5031795;28;20491;-77
2021/07/14 03:30:24;;;;;;;12.82;6.80;;;15.00;99.90;;;;;;5031795;28;20045;-77
2021/07/14 03:32:51;;;;;;;9.90;7.03;;;15.00;99.90;;;;;;5031673;28;20057;-77
2021/07/14 03:35:17;;;;;;;12.57;7.05;;;15.00;99.90;;;;;;5032573;28;20034;-78
2021/07/14 03:37:45;;;;;;;8.55;6.13;;;15.00;99.90;;;;;;5045870;28;20037;-78
2021/07/14 03:40:12;;;;;;;10.15;6.07;;;15.00;99.90;;;;;;5039931;28;20057;-78
2021/07/14 03:42:40;;;;;;;10.13;7.20;;;15.00;99.90;;;;;;5035991;28;20235;-77
2021/07/14 03:45:08;;;;;;;8.95;6.68;;;15.10;99.90;;;;;;5066259;28;20428;-77
2021/07/14 03:47:35;;;;;;;8.05;6.38;;;15.10;99.90;;;;;;5039873;28;20036;-77
2021/07/14 03:50:04;;;;;;;9.52;5.93;;;15.00;99.90;;;;;;5051890;28;20389;-76
2021/07/14 03:52:30;;;;;;;8.15;6.38;;;15.00;99.90;;;;;;5040217;28;20126;-76
2021/07/14 03:54:59;;;;;;;9.73;6.00;;;15.00;99.90;;;;;;5035433;28;20032;-77
2021/07/14 03:57:27;;;;;;;7.20;5.90;;;15.00;99.90;;;;;;5049334;28;20049;-75
2021/07/14 03:59:53;;;;;;;8.45;6.65;;;15.00;99.90;;;;;;5035267;28;20044;-76
2021/07/14 04:02:20;;;;;;;9.73;7.07;;;15.00;99.90;;;;;;5043228;28;20367;-76
2021/07/14 04:04:49;;;;;;;10.15;6.47;;;15.00;99.90;;;;;;5048469;28;20029;-75
2021/07/14 04:07:22;;;;;;;10.30;7.07;;;15.00;99.90;;;;;;5035300;28;20045;-76
2021/07/14 04:09:49;;;;;;;8.30;6.35;;;15.00;99.90;;;;;;5035224;28;20036;-77
2021/07/14 04:12:16;;;;;;;8.73;6.82;;;15.10;99.90;;;;;;5035412;28;20034;-75
2021/07/14 04:14:43;;;;;;;11.13;7.90;;;15.10;99.90;;;;;;5034351;28;20491;-76
2021/07/14 04:17:10;;;;;;;7.80;6.32;;;15.20;99.90;;;;;;5035004;28;20044;-75
2021/07/14 04:19:37;;;;;;;11.20;7.28;;;15.20;99.90;;;;;;5040348;28;20052;-74
2021/07/14 04:22:05;;;;;;;7.32;6.63;;;15.20;99.90;;;;;;5048823;28;20352;-75
2021/07/14 04:24:32;;;;;;;9.25;6.60;;;15.30;99.90;;;;;;5049701;28;20025;-75
2021/07/14 04:26:59;;;;;;;10.60;6.63;;;15.30;99.90;;;;;;5053986;28;20049;-75
2021/07/14 04:29:26;;;;;;;9.02;6.93;;;15.30;99.90;;;;;;5034409;28;20052;-75
2021/07/14 04:31:52;;;;;;;10.95;7.25;;;15.30;99.90;;;;;;5044142;28;20041;-75
2021/07/14 04:34:18;;;;;;;9.70;7.57;;;15.30;99.90;;;;;;5034614;28;20044;-75
2021/07/14 04:36:44;;;;;;;9.82;7.15;;;15.30;99.90;;;;;;5038140;28;20374;-76
2021/07/14 04:39:11;;;;;;;7.63;5.68;;;15.30;99.90;;;;;;5046455;28;20032;-74
2021/07/14 04:41:38;;;;;;;10.35;6.78;;;15.30;99.90;;;;;;5034036;28;20482;-74
2021/07/14 04:44:07;;;;;;;9.88;6.65;;;15.40;99.90;;;;;;5033509;28;20434;-75
2021/07/14 04:46:34;;;;;;;8.88;6.22;;;15.40;99.90;;;;;;5033590;28;20029;-75
2021/07/14 04:49:01;;;;;;;13.23;7.50;;;15.40;99.90;;;;;;5032470;28;20052;-75
2021/07/14 04:51:27;;;;;;;12.60;5.57;;;15.40;99.90;;;;;;5049528;28;20467;-75
2021/07/14 04:53:54;;;;;;;8.07;6.10;;;15.40;99.90;;;;;;5051150;28;20052;-75
2021/07/14 04:56:20;;;;;;;8.32;5.93;;;15.40;99.90;;;;;;5040506;28;20048;-75
2021/07/14 04:58:47;;;;;;;8.50;6.85;;;15.50;99.90;;;;;;5033937;28;20032;-75
2021/07/14 05:01:17;;;;;;;10.10;6.95;;;15.40;99.90;;;;;;5033938;28;20041;-76
2021/07/14 05:03:45;;;;;;;12.13;7.43;;;15.40;99.90;;;;;;5048449;28;20040;-75
2021/07/14 05:06:13;;;;;;;10.27;6.40;;;15.40;99.90;;;;;;5038276;28;20482;-76
2021/07/14 05:08:39;;;;;;;10.80;6.95;;;15.40;99.90;;;;;;5041231;28;20038;-75
2021/07/14 05:11:05;;;;;;;9.48;6.60;;;15.40;99.90;;;;;;5036833;28;20025;-75
2021/07/14 05:13:32;;;;;;;10.15;6.75;;;15.40;99.90;;;;;;5034031;28;20471;-74
2021/07/14 05:15:58;;;;;;;12.05;7.55;;;15.40;99.90;;;;;;5033186;28;20048;-75
2021/07/14 05:18:25;;;;;;;8.38;7.00;;;15.40;99.90;;;;;;5033582;28;20050;-74
2021/07/14 05:20:51;;;;;;;9.07;6.47;;;15.40;99.90;;;;;;5033565;28;20490;-75
2021/07/14 05:23:17;;;;;;;10.98;6.82;;;15.50;99.90;;;;;;5033280;28;20029;-75
2021/07/14 05:25:44;;;;;;;11.77;7.57;;;15.50;99.90;;;;;;5033326;28;20420;-75
2021/07/14 05:28:11;;;;;;;8.35;7.00;;;15.50;99.90;;;;;;5030559;28;20048;-76
2021/07/14 05:30:39;;;;;;;8.35;7.10;;;15.60;99.90;;;;;;5034691;28;20033;-75
2021/07/14 05:33:06;;;;;;;8.40;6.35;;;15.60;99.90;;;;;;5033782;28;20038;-75
2021/07/14 05:35:32;;;;;;;8.82;6.90;;;15.60;99.90;;;;;;5043971;28;20038;-75
2021/07/14 05:37:59;;;;;;;8.57;6.28;;;15.60;99.90;;;;;;5019837;28;20033;-75
2021/07/14 05:40:25;;;;;;;6.95;6.25;;;15.60;99.90;;;;;;5033755;28;20033;-75
2021/07/14 05:42:51;;;;;;;11.60;6.70;;;15.50;99.90;;;;;;5045971;28;20382;-75
2021/07/14 05:45:17;;;;;;;8.63;6.63;;;15.50;99.90;;;;;;5042756;28;20355;-75
2021/07/14 05:47:45;;;;;;;9.75;7.30;;;15.60;99.90;;;;;;5038235;28;20052;-75
2021/07/14 05:50:11;;;;;;;9.13;6.35;;;15.70;99.90;;;;;;5039447;28;20034;-76
2021/07/14 05:52:38;;;;;;;7.40;5.78;;;15.80;99.90;;;;;;5048230;28;20036;-76
2021/07/14 05:55:05;;;;;;;8.55;5.97;;;15.90;99.90;;;;;;5042971;28;20415;-76
2021/07/14 05:57:33;;;;;;;6.15;5.40;;;16.00;99.90;;;;;;5044565;28;20471;-75
2021/07/14 05:59:59;;;;;;;11.93;6.13;;;16.10;99.90;;;;;;5032980;28;20029;-76
2021/07/14 06:02:25;;;;;;;9.38;6.50;;;16.20;99.90;;;;;;5034308;28;20038;-75
2021/07/14 06:04:51;;;;;;;9.05;5.72;;;16.30;99.90;;;;;;5049773;28;20467;-76
2021/07/14 06:07:18;;;;;;;11.15;6.82;;;16.30;99.90;;;;;;5025509;28;20406;-76
2021/07/14 06:09:44;;;;;;;9.95;6.22;;;16.30;99.90;;;;;;5032697;28;20041;-76
2021/07/14 06:12:11;;;;;;;8.82;6.10;;;16.30;99.90;;;;;;5032884;28;20033;-76
2021/07/14 06:14:37;;;;;;;10.57;5.82;;;16.30;99.90;;;;;;5033037;28;20045;-76
2021/07/14 06:17:03;;;;;;;7.68;4.20;;;16.30;99.90;;;;;;5032809;28;20049;-76
2021/07/14 06:19:29;;;;;;;9.13;6.13;;;16.30;99.90;;;;;;5048490;28;20033;-76
2021/07/14 06:21:56;;;;;;;8.80;5.10;;;16.30;99.90;;;;;;5051431;28;20049;-77
2021/07/14 06:24:22;;;;;;;9.45;5.43;;;16.30;99.90;;;;;;5033290;28;20061;-77
2021/07/14 06:26:50;;;;;;;8.05;4.93;;;16.30;99.90;;;;;;5040148;28;20390;-76
2021/07/14 06:29:16;;;;;;;9.60;5.82;;;16.30;99.90;;;;;;5043146;28;20066;-76
2021/07/14 06:31:45;;;;;;;7.78;4.78;;;16.30;99.90;;;;;;5031732;28;20064;-76
2021/07/14 06:34:12;;;;;;;10.00;5.28;;;16.30;99.90;;;;;;5032424;28;20040;-76
2021/07/14 06:36:39;;;;;;;10.25;4.80;;;16.40;99.90;;;;;;5031657;28;20053;-76
2021/07/14 06:39:05;;;;;;;5.80;4.75;;;16.40;99.90;;;;;;5032370;28;20099;-76
2021/07/14 06:41:32;;;;;;;5.88;3.88;;;16.40;99.90;;;;;;5032790;28;20033;-76
2021/07/14 06:44:01;;;;;;;7.93;5.15;;;16.40;99.90;;;;;;5045558;28;20044;-76
2021/07/14 06:46:28;;;;;;;13.73;6.20;;;16.40;99.90;;;;;;5041428;28;20037;-76
2021/07/14 06:48:55;;;;;;;6.88;5.53;;;16.30;99.90;;;;;;5030232;28;20038;-76
2021/07/14 06:51:21;;;;;;;11.55;5.90;;;16.20;99.90;;;;;;5032852;28;20040;-77
2021/07/14 06:53:48;;;;;;;11.60;5.60;;;16.10;99.90;;;;;;5032953;28;20029;-76
2021/07/14 06:56:14;;;;;;;9.02;5.80;;;16.10;99.90;;;;;;5033124;28;20036;-75
2021/07/14 06:58:40;;;;;;;6.93;5.78;;;16.10;99.90;;;;;;5039512;28;20037;-76
2021/07/14 07:01:08;;;;;;;9.77;5.65;;;16.10;99.90;;;;;;5032682;28;20038;-76
2021/07/14 07:03:34;;;;;;;7.03;5.40;;;16.10;99.90;;;;;;5032529;28;20041;-77
2021/07/14 07:06:02;;;;;;;12.25;5.55;;;16.10;99.90;;;;;;5014357;28;20038;-76
2021/07/14 07:08:28;;;;;;;8.27;4.88;;;16.20;99.90;;;;;;5031949;28;20041;-76
2021/07/14 07:10:55;;;;;;;5.65;4.20;;;16.20;99.90;;;;;;5035468;28;20414;-77
2021/07/14 07:13:21;;;;;;;8.70;4.53;;;16.30;99.90;;;;;;5035733;28;20052;-76
2021/07/14 07:15:49;;;;;;;6.30;4.63;;;16.40;99.90;;;;;;5035965;28;20036;-77
2021/07/14 07:18:16;;;;;;;9.15;4.78;;;16.40;99.90;;;;;;5034739;28;20046;-75
2021/07/14 07:20:42;;;;;;;8.20;4.72;;;16.20;99.90;;;;;;5036450;28;20037;-76
2021/07/14 07:23:10;;;;;;;10.13;6.50;;;16.20;99.90;;;;;;5050608;28;20033;-76
2021/07/14 07:25:38;;;;;;;7.32;5.70;;;16.20;99.90;;;;;;5035685;28;20045;-76
2021/07/14 07:28:12;;;;;;;7.93;5.95;;;16.20;99.90;;;;;;5035782;28;20505;-76
2021/07/14 07:30:38;;;;;;;7.75;5.35;;;16.30;99.90;;;;;;5035762;28;20033;-76
2021/07/14 07:33:04;;;;;;;9.13;5.43;;;16.40;99.90;;;;;;5050395;28;20041;-76
2021/07/14 07:35:30;;;;;;;8.65;6.78;;;16.40;99.90;;;;;;5035192;28;20037;-76
2021/07/14 07:37:57;;;;;;;10.38;6.57;;;16.50;99.90;;;;;;5050839;28;20120;-75
2021/07/14 07:40:23;;;;;;;10.32;6.47;;;16.60;99.90;;;;;;5019412;28;20050;-76
2021/07/14 07:42:49;;;;;;;10.90;6.18;;;16.60;99.90;;;;;;5040157;28;20036;-77
2021/07/14 07:45:15;;;;;;;9.90;7.03;;;16.70;99.90;;;;;;5043451;28;20380;-75
2021/07/14 07:47:42;;;;;;;12.70;6.95;;;16.70;99.90;;;;;;5042958;28;20020;-75
2021/07/14 07:50:09;;;;;;;7.93;6.63;;;16.60;99.90;;;;;;5045427;28;20490;-75
2021/07/14 07:52:35;;;;;;;11.95;7.03;;;16.60;99.90;;;;;;5043837;28;20025;-75
2021/07/14 07:55:09;;;;;;;9.18;6.30;;;16.70;99.90;;;;;;5043453;28;20041;-75
2021/07/14 07:57:40;;;;;;;10.88;6.28;;;16.80;99.90;;;;;;5051689;28;20052;-75
2021/07/14 08:00:10;;;;;;;9.55;6.70;;;16.90;99.90;;;;;;5035546;28;20057;-75
2021/07/14 08:02:39;;;;;;;8.23;6.10;;;17.10;99.90;;;;;;5036898;28;20049;-74
2021/07/14 08:05:06;;;;;;;15.82;7.28;;;17.10;99.90;;;;;;5035037;28;20467;-74
2021/07/14 08:07:32;;;;;;;10.52;6.18;;;17.00;99.90;;;;;;5034913;28;20045;-75
2021/07/14 08:09:59;;;;;;;14.38;6.85;;;17.00;99.90;;;;;;5017736;28;20041;-74
2021/07/14 08:12:25;;;;;;;8.05;6.28;;;16.90;99.90;;;;;;5035423;28;20036;-74
2021/07/14 08:14:51;;;;;;;9.13;6.05;;;17.00;99.90;;;;;;5035412;28;20033;-74
2021/07/14 08:17:17;;;;;;;8.88;6.72;;;17.10;99.90;;;;;;5035175;28;20030;-74
2021/07/14 08:19:44;;;;;;;10.23;6.40;;;17.10;99.90;;;;;;5038322;28;20048;-75
2021/07/14 08:22:10;;;;;;;9.35;5.45;;;17.00;99.90;;;;;;5051477;28;20037;-74
2021/07/14 08:24:36;;;;;;;10.85;5.70;;;17.20;99.90;;;;;;5034292;28;20506;-74
2021/07/14 08:27:03;;;;;;;9.77;5.70;;;17.20;99.90;;;;;;5045101;28;20025;-74
2021/07/14 08:29:29;;;;;;;8.82;6.03;;;17.20;99.90;;;;;;5045125;28;20474;-74
2021/07/14 08:31:55;;;;;;;10.25;6.20;;;17.20;99.90;;;;;;5036493;28;20052;-74
2021/07/14 08:34:21;;;;;;;11.25;5.88;;;17.20;99.90;;;;;;5037480;28;20068;-74
2021/07/14 08:36:48;;;;;;;7.88;6.00;;;17.10;99.90;;;;;;5039792;28;20063;-74
2021/07/14 08:39:14;;;;;;;8.57;6.28;;;17.10;99.90;;;;;;5048252;28;20040;-74
2021/07/14 08:41:43;;;;;;;7.93;5.38;;;17.10;99.90;;;;;;5067517;28;20045;-73
2021/07/14 08:44:12;;;;;;;8.52;6.30;;;17.20;99.90;;;;;;5065369;28;20045;-74
2021/07/14 08:46:38;;;;;;;8.75;5.05;;;17.20;99.90;;;;;;5033482;28;20029;-74
2021/07/14 08:49:05;;;;;;;7.45;5.55;;;17.30;99.90;;;;;;5034223;28;20036;-73
2021/07/14 08:51:36;;;;;;;11.15;4.88;;;17.40;99.90;;;;;;5034183;28;20049;-74
2021/07/14 08:54:04;;;;;;;8.68;5.43;;;17.50;99.90;;;;;;5034084;28;20033;-74
2021/07/14 08:56:31;;;;;;;9.38;5.43;;;17.40;99.90;;;;;;5033302;28;20030;-74
2021/07/14 08:58:58;;;;;;;5.60;4.72;;;17.30;99.90;;;;;;5043128;28;20049;-75
2021/07/14 09:01:24;;;;;;;6.90;5.40;;;17.20;99.90;;;;;;5016444;28;20041;-73
2021/07/14 09:03:50;;;;;;;7.93;4.38;;;17.10;99.90;;;;;;5033670;28;20025;-74
2021/07/14 09:06:16;;;;;;;7.38;4.85;;;17.10;99.90;;;;;;5016085;28;20383;-73
2021/07/14 09:08:43;;;;;;;6.78;4.28;;;17.00;99.90;;;;;;5053730;28;20044;-74
2021/07/14 09:11:09;;;;;;;10.93;4.50;;;17.00;99.90;;;;;;5041500;28;20029;-74
2021/07/14 09:13:37;;;;;;;6.53;4.10;;;17.10;99.90;;;;;;5048068;28;20041;-74
2021/07/14 09:16:05;;;;;;;6.70;4.18;;;17.10;99.90;;;;;;5033425;28;20038;-74
2021/07/14 09:18:31;;;;;;;5.45;4.40;;;17.00;99.90;;;;;;5041762;28;20386;-73
2021/07/14 09:20:59;;;;;;;8.63;4.07;;;16.90;99.90;;;;;;5033697;28;20049;-74
2021/07/14 09:23:34;;;;;;;6.25;4.47;;;17.00;99.90;;;;;;5033451;28;20030;-74
2021/07/14 09:26:04;;;;;;;7.18;4.03;;;17.00;99.90;;;;;;5032707;28;20042;-74
2021/07/14 09:28:36;;;;;;;8.70;4.32;;;17.00;99.90;;;;;;5033225;28;20109;-74
2021/07/14 09:31:08;;;;;;;7.45;4.15;;;17.00;99.90;;;;;;5033374;28;20029;-74
2021/07/14 09:33:36;;;;;;;6.68;3.88;;;17.00;99.90;;;;;;5031929;28;20056;-74
2021/07/14 09:36:02;;;;;;;7.45;4.35;;;17.00;99.90;;;;;;5033218;28;20037;-74
2021/07/14 09:38:31;;;;;;;6.28;4.68;;;17.00;99.90;;;;;;5032845;28;20471;-74
2021/07/14 09:41:00;;;;;;;7.43;4.20;;;17.00;99.90;;;;;;5047997;28;20033;-75
2021/07/14 09:43:32;;;;;;;9.35;4.65;;;17.00;99.90;;;;;;5040996;28;20037;-74
2021/07/14 09:46:00;;;;;;;5.95;3.88;;;17.10;99.90;;;;;;5033633;28;20061;-75
2021/07/14 09:48:29;;;;;;;6.38;5.03;;;17.10;99.90;;;;;;5033524;28;20044;-75
2021/07/14 09:51:13;;;;;;;8.77;5.00;;;17.00;99.90;;;;;;5038883;28;20029;-74
2021/07/14 09:53:47;;;;;;;6.95;4.43;;;17.00;99.90;;;;;;5045419;28;20041;-75
2021/07/14 09:56:15;;;;;;;8.35;4.95;;;17.00;99.90;;;;;;5048786;28;20029;-74
2021/07/14 09:58:42;;;;;;;6.40;3.83;;;17.00;99.90;;;;;;5041736;28;20046;-75
2021/07/14 10:01:13;;;;;;;5.15;3.55;;;17.00;99.90;;;;;;5034077;28;20045;-75
2021/07/14 10:03:48;;;;;;;6.82;4.00;;;17.00;99.90;;;;;;5033422;28;20037;-74
2021/07/14 10:06:15;;;;;;;5.53;3.08;;;17.00;99.90;;;;;;5033122;28;20037;-75
2021/07/14 10:08:46;;;;;;;5.35;3.10;;;17.00;99.90;;;;;;5032732;28;20029;-75
2021/07/14 10:11:19;;;;;;;6.85;3.40;;;17.00;99.90;;;;;;5033746;28;20407;-75
2021/07/14 10:14:06;;;;;;;4.68;3.42;;;16.90;99.90;;;;;;5032501;28;20033;-75
2021/07/14 10:16:38;;;;;;;7.53;3.35;;;16.90;99.90;;;;;;5032303;28;20410;-74
2021/07/14 10:19:10;;;;;;;6.43;4.00;;;16.90;99.90;;;;;;5033731;28;20037;-75
2021/07/14 10:21:49;;;;;;;8.30;3.72;;;16.90;99.90;;;;;;5045739;28;20044;-75
2021/07/14 10:24:18;;;;;;;7.47;3.47;;;16.90;99.90;;;;;;5032616;28;20034;-74
2021/07/14 10:26:46;;;;;;;5.28;3.25;;;16.80;99.90;;;;;;5043309;28;20029;-74
2021/07/14 10:29:13;;;;;;;5.90;3.65;;;16.90;99.90;;;;;;5051024;28;20051;-74
2021/07/14 10:31:40;;;;;;;9.05;4.07;;;16.80;99.90;;;;;;5032602;28;20493;-74
2021/07/14 10:34:09;;;;;;;10.70;3.65;;;16.80;99.90;;;;;;5032260;28;20038;-74
2021/07/14 10:36:38;;;;;;;6.70;3.95;;;16.70;99.90;;;;;;5032100;28;20053;-74
2021/07/14 10:39:12;;;;;;;6.93;3.97;;;16.70;99.90;;;;;;5046155;28;20036;-73
2021/07/14 10:41:39;;;;;;;5.15;3.45;;;16.80;99.90;;;;;;5032457;28;20045;-74
2021/07/14 10:44:06;;;;;;;5.68;3.83;;;16.70;99.90;;;;;;5020046;28;20041;-74
2021/07/14 10:46:34;;;;;;;5.65;4.10;;;16.60;99.90;;;;;;5021591;28;20065;-73
2021/07/14 10:49:03;;;;;;;5.97;3.28;;;16.70;99.90;;;;;;5028940;28;20530;-74
2021/07/14 10:51:32;;;;;;;5.47;3.97;;;16.70;99.90;;;;;;5029074;28;20050;-73
2021/07/14 10:54:02;;;;;;;5.75;4.00;;;16.70;99.90;;;;;;5027650;28;20029;-73
2021/07/14 10:56:30;;;;;;;10.88;3.90;;;16.70;99.90;;;;;;5029419;28;20033;-73
2021/07/14 10:58:57;;;;;;;8.20;4.50;;;16.80;99.90;;;;;;5029305;28;20084;-74
2021/07/14 11:01:51;;;;;;;4.75;3.53;;;16.90;99.90;;;;;;5029200;28;20495;-74
2021/07/14 11:04:26;;;;;;;11.27;4.18;;;16.80;99.90;;;;;;5029469;28;20514;-74
2021/07/14 11:06:56;;;;;;;5.13;3.80;;;16.70;99.90;;;;;;5029223;28;20033;-74
2021/07/14 11:09:50;;;;;;;7.93;4.20;;;16.70;99.90;;;;;;5029539;28;20052;-74
2021/07/14 11:12:30;;;;;;;7.10;4.38;;;16.60;99.90;;;;;;5019554;28;20792;-74
2021/07/14 11:15:01;;;;;;;8.13;4.80;;;16.60;99.90;;;;;;5028780;28;20037;-74
2021/07/14 11:17:32;;;;;;;8.52;4.88;;;16.60;99.90;;;;;;5029076;28;20446;-74
2021/07/14 11:20:12;;;;;;;6.50;4.75;;;16.60;99.90;;;;;;5029532;28;20044;-75
2021/07/14 11:22:41;;;;;;;9.32;6.05;;;16.50;99.90;;;;;;5028722;28;20458;-76
2021/07/14 11:25:30;;;;;;;7.88;6.43;;;16.60;99.90;;;;;;5050342;28;20045;-76
2021/07/14 11:28:07;;;;;;;7.40;5.38;;;16.50;99.90;;;;;;5031771;28;20040;-77
2021/07/14 11:30:43;;;;;;;7.03;5.43;;;16.60;99.90;;;;;;5038914;28;20040;-76
2021/07/14 11:33:17;;;;;;;10.50;6.85;;;16.50;99.90;;;;;;5043647;28;20056;-77
2021/07/14 11:35:52;;;;;;;8.25;5.65;;;16.40;99.90;;;;;;5031800;28;20382;-77
2021/07/14 11:38:22;;;;;;;10.48;6.65;;;16.40;99.90;;;;;;5032496;28;20029;-77
2021/07/14 11:40:54;;;;;;;7.53;5.85;;;16.40;99.90;;;;;;5032259;28;20471;-77
2021/07/14 11:43:24;;;;;;;9.27;6.38;;;16.40;99.90;;;;;;5032117;28;20033;-77
2021/07/14 11:45:54;;;;;;;11.60;6.93;;;16.40;99.90;;;;;;5031440;28;20064;-75
2021/07/14 11:48:27;;;;;;;7.38;6.25;;;16.50;99.90;;;;;;5032350;28;20407;-76
2021/07/14 11:50:59;;;;;;;9.10;6.63;;;16.40;99.90;;;;;;5031176;28;20029;-75
2021/07/14 11:53:25;;;;;;;9.20;6.07;;;16.40;99.90;;;;;;5031900;28;20093;-76
2021/07/14 11:56:06;;;;;;;7.35;6.28;;;16.50;99.90;;;;;;5031336;28;20046;-76
2021/07/14 11:59:04;;;;;;;10.07;6.70;;;16.50;99.90;;;;;;5035121;28;20466;-75
2021/07/14 12:01:30;;;;;;;8.93;7.38;;;16.60;99.90;;;;;;5028954;28;20053;-76
2021/07/14 12:04:03;;;;;;;9.60;7.32;;;16.70;99.90;;;;;;5044636;28;20037;-77
2021/07/14 12:06:38;;;;;;;10.40;6.88;;;16.80;99.90;;;;;;5017774;28;20494;-76
2021/07/14 12:09:13;;;;;;;9.38;6.63;;;16.80;99.90;;;;;;5034914;28;20033;-77
2021/07/14 12:11:50;;;;;;;9.25;6.30;;;16.80;99.90;;;;;;5034606;28;20746;-76
2021/07/14 12:14:38;;;;;;;8.60;6.32;;;17.00;99.90;;;;;;5034261;28;20046;-76
2021/07/14 12:17:08;;;;;;;13.60;7.78;;;17.20;99.90;;;;;;5038131;28;20026;-74
2021/07/14 12:19:37;;;;;;;;;;;17.40;99.90;;;;;;5039466;28;20037;-75
2021/07/14 12:22:16;;;;;;;6.72;4.97;;;17.50;99.90;;;;;;5043120;28;19913;-75
2021/07/14 12:25:12;;;;;;;5.95;4.70;;;17.70;99.90;;;;;;5054647;28;20036;-75
2021/07/14 12:27:43;;;;;;;10.07;6.82;;;17.70;99.90;;;;;;5042593;28;20046;-75
2021/07/14 12:30:13;;;;;;;9.52;5.97;;;17.80;99.90;;;;;;5034690;28;20037;-76
2021/07/14 12:32:40;;;;;;;9.00;4.95;;;17.90;99.90;;;;;;5057912;28;20394;-75
2021/07/14 12:35:13;;;;;;;7.13;3.60;;;18.10;99.90;;;;;;5054572;28;20469;-76
2021/07/14 12:37:54;;;;;;;5.80;3.40;;;18.20;99.90;;;;;;5052354;28;20052;-74
2021/07/14 12:40:26;;;;;;;;;;;18.20;99.90;;;;;;5049915;28;20479;-75
2021/07/14 12:42:54;;;;;;;5.25;3.60;;;18.10;99.90;;;;;;5033415;28;19928;-75
2021/07/14 12:45:30;;;;;;;7.47;3.58;;;18.20;99.90;;;;;;5034694;28;20037;-75
2021/07/14 12:48:00;;;;;;;8.45;3.55;;;18.30;99.90;;;;;;5034306;28;20367;-75
2021/07/14 12:50:27;;;;;;;6.72;2.70;;;18.40;99.90;;;;;;5034789;28;20045;-75
2021/07/14 12:52:59;;;;;;;5.38;2.80;;;18.40;99.90;;;;;;5033846;28;20052;-74
2021/07/14 12:55:27;;;;;;;8.65;2.88;;;18.40;99.90;;;;;;5034228;28;20383;-75
2021/07/14 12:58:03;;;;;;;5.50;3.13;;;18.60;99.90;;;;;;5033632;28;20034;-75
2021/07/14 13:00:29;;;;;;;4.15;2.50;;;18.80;99.90;;;;;;5034156;28;20037;-76
2021/07/14 13:02:58;;;;;;;6.00;2.65;;;18.80;99.90;;;;;;5033803;28;20358;-75
2021/07/14 13:05:28;;;;;;;7.57;3.78;;;18.90;99.90;;;;;;5016993;28;20045;-76
2021/07/14 13:07:58;;;;;;;4.45;3.05;;;18.90;99.90;;;;;;5034265;28;20026;-75